sensor_id;sensor_type;location;lat;lon;timestamp;P1;durP1;ratioP1;P2;durP2;ratioP2
9370;SDS011;4725;48.384;8.984;2022-10-31T00:00:05;9.93;;;3.27;;
9370;SDS011;4725;48.384;8.984;2022-10-31T00:02:33;9.37;;;3.07;;
9370;SDS011;4725;48.384;8.984;2022-10-31T00:05:00;7.70;;;2.87;;
9370;SDS011;4725;48.384;8.984;2022-10-31T00:07:27;4.87;;;2.90;;
9370;SDS011;4725;48.384;8.984;2022-10-31T00:09:54;5.13;;;2.43;;
9370;SDS011;4725;48.384;8.984;2022-10-31T00:12:23;9.87;;;3.10;;
9370;SDS011;4725;48.384;8.984;2022-10-31T00:14:49;10.70;;;6.43;;
9370;SDS011;4725;48.384;8.984;2022-10-31T00:17:16;4.73;;;2.60;;
9370;SDS011;4725;48.384;8.984;2022-10-31T00:19:43;4.93;;;2.60;;
9370;SDS011;4725;48.384;8.984;2022-10-31T00:22:10;8.93;;;3.40;;
9370;SDS011;4725;48.384;8.984;2022-10-31T00:24:37;5.60;;;2.43;;
9370;SDS011;4725;48.384;8.984;2022-10-31T00:27:04;5.63;;;2.37;;
9370;SDS011;4725;48.384;8.984;2022-10-31T00:29:32;5.53;;;2.77;;
9370;SDS011;4725;48.384;8.984;2022-10-31T00:31:59;7.10;;;2.73;;
9370;SDS011;4725;48.384;8.984;2022-10-31T00:34:26;4.80;;;2.87;;
9370;SDS011;4725;48.384;8.984;2022-10-31T00:36:53;6.17;;;2.67;;
9370;SDS011;4725;48.384;8.984;2022-10-31T00:39:20;11.37;;;2.67;;
9370;SDS011;4725;48.384;8.984;2022-10-31T00:41:47;6.33;;;3.00;;
9370;SDS011;4725;48.384;8.984;2022-10-31T00:44:14;8.03;;;2.80;;
9370;SDS011;4725;48.384;8.984;2022-10-31T00:46:42;7.00;;;3.50;;
9370;SDS011;4725;48.384;8.984;2022-10-31T00:49:09;5.20;;;3.07;;
9370;SDS011;4725;48.384;8.984;2022-10-31T00:51:37;8.00;;;2.50;;
9370;SDS011;4725;48.384;8.984;2022-10-31T00:54:04;5.73;;;2.70;;
9370;SDS011;4725;48.384;8.984;2022-10-31T00:56:31;10.13;;;3.57;;
9370;SDS011;4725;48.384;8.984;2022-10-31T00:58:58;5.77;;;2.60;;
9370;SDS011;4725;48.384;8.984;2022-10-31T01:01:25;6.13;;;2.70;;
9370;SDS011;4725;48.384;8.984;2022-10-31T01:03:53;4.73;;;2.43;;
9370;SDS011;4725;48.384;8.984;2022-10-31T01:06:20;3.97;;;2.50;;
9370;SDS011;4725;48.384;8.984;2022-10-31T01:08:47;7.43;;;2.40;;
9370;SDS011;4725;48.384;8.984;2022-10-31T01:11:15;5.17;;;2.87;;
9370;SDS011;4725;48.384;8.984;2022-10-31T01:13:43;8.97;;;2.60;;
9370;SDS011;4725;48.384;8.984;2022-10-31T01:16:12;5.20;;;2.57;;
9370;SDS011;4725;48.384;8.984;2022-10-31T01:18:40;7.00;;;2.50;;
9370;SDS011;4725;48.384;8.984;2022-10-31T01:21:10;9.23;;;2.70;;
9370;SDS011;4725;48.384;8.984;2022-10-31T01:23:39;11.27;;;3.07;;
9370;SDS011;4725;48.384;8.984;2022-10-31T01:26:07;7.27;;;2.33;;
9370;SDS011;4725;48.384;8.984;2022-10-31T01:28:36;7.47;;;3.40;;
9370;SDS011;4725;48.384;8.984;2022-10-31T01:31:05;4.60;;;2.80;;
9370;SDS011;4725;48.384;8.984;2022-10-31T01:33:33;7.27;;;2.27;;
9370;SDS011;4725;48.384;8.984;2022-10-31T01:36:01;9.97;;;2.90;;
9370;SDS011;4725;48.384;8.984;2022-10-31T01:38:38;13.30;;;2.47;;
9370;SDS011;4725;48.384;8.984;2022-10-31T01:41:05;7.63;;;2.40;;
9370;SDS011;4725;48.384;8.984;2022-10-31T01:43:42;6.07;;;2.60;;
9370;SDS011;4725;48.384;8.984;2022-10-31T01:46:14;6.10;;;3.10;;
9370;SDS011;4725;48.384;8.984;2022-10-31T01:48:43;8.53;;;2.23;;
9370;SDS011;4725;48.384;8.984;2022-10-31T01:51:11;7.20;;;2.90;;
9370;SDS011;4725;48.384;8.984;2022-10-31T01:53:41;7.53;;;2.93;;
9370;SDS011;4725;48.384;8.984;2022-10-31T01:56:10;3.23;;;2.20;;
9370;SDS011;4725;48.384;8.984;2022-10-31T01:58:39;5.97;;;2.60;;
9370;SDS011;4725;48.384;8.984;2022-10-31T02:01:06;7.87;;;2.63;;
9370;SDS011;4725;48.384;8.984;2022-10-31T02:03:33;4.77;;;2.20;;
9370;SDS011;4725;48.384;8.984;2022-10-31T02:06:00;7.43;;;2.67;;
9370;SDS011;4725;48.384;8.984;2022-10-31T02:08:33;11.23;;;2.73;;
9370;SDS011;4725;48.384;8.984;2022-10-31T02:11:02;4.77;;;2.27;;
9370;SDS011;4725;48.384;8.984;2022-10-31T02:13:29;8.27;;;3.20;;
9370;SDS011;4725;48.384;8.984;2022-10-31T02:15:57;6.83;;;2.90;;
9370;SDS011;4725;48.384;8.984;2022-10-31T02:18:26;6.17;;;2.87;;
9370;SDS011;4725;48.384;8.984;2022-10-31T02:20:58;5.67;;;2.93;;
9370;SDS011;4725;48.384;8.984;2022-10-31T02:23:48;11.77;;;2.93;;
9370;SDS011;4725;48.384;8.984;2022-10-31T02:29:47;6.23;;;2.83;;
9370;SDS011;4725;48.384;8.984;2022-10-31T02:32:35;4.23;;;2.43;;
9370;SDS011;4725;48.384;8.984;2022-10-31T02:35:23;9.70;;;3.07;;
9370;SDS011;4725;48.384;8.984;2022-10-31T02:38:05;4.00;;;2.30;;
9370;SDS011;4725;48.384;8.984;2022-10-31T02:40:44;7.03;;;3.70;;
9370;SDS011;4725;48.384;8.984;2022-10-31T02:43:18;4.40;;;2.67;;
9370;SDS011;4725;48.384;8.984;2022-10-31T02:45:48;15.13;;;4.30;;
9370;SDS011;4725;48.384;8.984;2022-10-31T02:48:20;4.67;;;3.10;;
9370;SDS011;4725;48.384;8.984;2022-10-31T02:50:54;4.33;;;2.83;;
9370;SDS011;4725;48.384;8.984;2022-10-31T02:53:24;13.87;;;2.73;;
9370;SDS011;4725;48.384;8.984;2022-10-31T02:55:54;4.90;;;2.67;;
9370;SDS011;4725;48.384;8.984;2022-10-31T02:58:24;4.13;;;2.57;;
9370;SDS011;4725;48.384;8.984;2022-10-31T03:01:07;10.87;;;2.77;;
9370;SDS011;4725;48.384;8.984;2022-10-31T03:03:48;4.80;;;2.73;;
9370;SDS011;4725;48.384;8.984;2022-10-31T03:06:28;4.13;;;2.50;;
9370;SDS011;4725;48.384;8.984;2022-10-31T03:09:01;5.10;;;2.80;;
9370;SDS011;4725;48.384;8.984;2022-10-31T03:11:38;9.03;;;2.53;;
9370;SDS011;4725;48.384;8.984;2022-10-31T03:14:17;6.10;;;3.63;;
9370;SDS011;4725;48.384;8.984;2022-10-31T03:16:49;7.23;;;2.73;;
9370;SDS011;4725;48.384;8.984;2022-10-31T03:19:19;9.47;;;3.13;;
9370;SDS011;4725;48.384;8.984;2022-10-31T03:21:52;4.10;;;2.40;;
9370;SDS011;4725;48.384;8.984;2022-10-31T03:24:22;5.00;;;2.20;;
9370;SDS011;4725;48.384;8.984;2022-10-31T03:26:53;4.53;;;2.37;;
9370;SDS011;4725;48.384;8.984;2022-10-31T03:29:24;9.63;;;2.57;;
9370;SDS011;4725;48.384;8.984;2022-10-31T03:31:54;6.67;;;2.10;;
9370;SDS011;4725;48.384;8.984;2022-10-31T03:34:25;9.63;;;2.93;;
9370;SDS011;4725;48.384;8.984;2022-10-31T03:36:56;7.47;;;3.13;;
9370;SDS011;4725;48.384;8.984;2022-10-31T03:39:26;5.10;;;2.90;;
9370;SDS011;4725;48.384;8.984;2022-10-31T03:41:56;12.03;;;2.63;;
9370;SDS011;4725;48.384;8.984;2022-10-31T03:44:29;9.87;;;3.10;;
9370;SDS011;4725;48.384;8.984;2022-10-31T03:46:57;6.47;;;2.50;;
9370;SDS011;4725;48.384;8.984;2022-10-31T03:49:25;6.20;;;2.53;;
9370;SDS011;4725;48.384;8.984;2022-10-31T03:51:55;3.70;;;2.67;;
9370;SDS011;4725;48.384;8.984;2022-10-31T03:54:27;4.43;;;2.53;;
9370;SDS011;4725;48.384;8.984;2022-10-31T03:57:03;6.67;;;2.07;;
9370;SDS011;4725;48.384;8.984;2022-10-31T03:59:36;4.50;;;2.63;;
9370;SDS011;4725;48.384;8.984;2022-10-31T04:02:10;8.07;;;3.20;;
9370;SDS011;4725;48.384;8.984;2022-10-31T04:04:41;8.10;;;2.57;;
9370;SDS011;4725;48.384;8.984;2022-10-31T04:07:10;8.57;;;2.57;;
9370;SDS011;4725;48.384;8.984;2022-10-31T04:09:40;4.60;;;2.33;;
9370;SDS011;4725;48.384;8.984;2022-10-31T04:12:10;4.57;;;2.87;;
9370;SDS011;4725;48.384;8.984;2022-10-31T04:14:40;5.87;;;2.40;;
9370;SDS011;4725;48.384;8.984;2022-10-31T04:17:11;3.53;;;2.40;;
9370;SDS011;4725;48.384;8.984;2022-10-31T04:19:39;4.23;;;2.77;;
9370;SDS011;4725;48.384;8.984;2022-10-31T04:22:08;3.60;;;2.17;;
9370;SDS011;4725;48.384;8.984;2022-10-31T04:24:35;5.90;;;2.63;;
9370;SDS011;4725;48.384;8.984;2022-10-31T04:27:04;7.50;;;3.20;;
9370;SDS011;4725;48.384;8.984;2022-10-31T04:29:31;6.30;;;3.20;;
9370;SDS011;4725;48.384;8.984;2022-10-31T04:31:58;3.20;;;2.07;;
9370;SDS011;4725;48.384;8.984;2022-10-31T04:34:24;6.50;;;2.83;;
9370;SDS011;4725;48.384;8.984;2022-10-31T04:36:53;3.87;;;2.50;;
9370;SDS011;4725;48.384;8.984;2022-10-31T04:39:20;6.63;;;2.70;;
9370;SDS011;4725;48.384;8.984;2022-10-31T04:41:47;6.80;;;2.53;;
9370;SDS011;4725;48.384;8.984;2022-10-31T04:44:13;4.90;;;2.87;;
9370;SDS011;4725;48.384;8.984;2022-10-31T04:46:40;8.60;;;3.30;;
9370;SDS011;4725;48.384;8.984;2022-10-31T04:49:07;6.33;;;3.83;;
9370;SDS011;4725;48.384;8.984;2022-10-31T04:51:34;5.57;;;2.90;;
9370;SDS011;4725;48.384;8.984;2022-10-31T04:54:03;4.60;;;2.87;;
9370;SDS011;4725;48.384;8.984;2022-10-31T04:56:30;11.07;;;3.00;;
9370;SDS011;4725;48.384;8.984;2022-10-31T04:58:57;7.00;;;4.27;;
9370;SDS011;4725;48.384;8.984;2022-10-31T05:01:23;8.70;;;3.20;;
9370;SDS011;4725;48.384;8.984;2022-10-31T05:03:50;7.43;;;2.90;;
9370;SDS011;4725;48.384;8.984;2022-10-31T05:06:17;6.93;;;2.70;;
9370;SDS011;4725;48.384;8.984;2022-10-31T05:08:44;9.33;;;3.23;;
9370;SDS011;4725;48.384;8.984;2022-10-31T05:11:12;9.10;;;2.60;;
9370;SDS011;4725;48.384;8.984;2022-10-31T05:13:39;7.03;;;2.93;;
9370;SDS011;4725;48.384;8.984;2022-10-31T05:16:06;5.47;;;3.07;;
9370;SDS011;4725;48.384;8.984;2022-10-31T05:18:33;4.30;;;2.80;;
9370;SDS011;4725;48.384;8.984;2022-10-31T05:21:00;4.10;;;2.63;;
9370;SDS011;4725;48.384;8.984;2022-10-31T05:23:27;7.53;;;2.90;;
9370;SDS011;4725;48.384;8.984;2022-10-31T05:25:54;3.47;;;2.47;;
9370;SDS011;4725;48.384;8.984;2022-10-31T05:28:22;6.43;;;2.80;;
9370;SDS011;4725;48.384;8.984;2022-10-31T05:30:49;13.60;;;3.63;;
9370;SDS011;4725;48.384;8.984;2022-10-31T05:33:16;6.87;;;3.10;;
9370;SDS011;4725;48.384;8.984;2022-10-31T05:35:43;6.27;;;3.20;;
9370;SDS011;4725;48.384;8.984;2022-10-31T05:38:10;5.23;;;3.30;;
9370;SDS011;4725;48.384;8.984;2022-10-31T05:40:37;7.43;;;2.90;;
9370;SDS011;4725;48.384;8.984;2022-10-31T05:43:04;9.30;;;3.07;;
9370;SDS011;4725;48.384;8.984;2022-10-31T05:45:32;7.43;;;2.93;;
9370;SDS011;4725;48.384;8.984;2022-10-31T05:48:00;10.97;;;3.33;;
9370;SDS011;4725;48.384;8.984;2022-10-31T05:50:29;5.70;;;3.00;;
9370;SDS011;4725;48.384;8.984;2022-10-31T05:52:57;6.57;;;2.93;;
9370;SDS011;4725;48.384;8.984;2022-10-31T05:55:25;5.87;;;2.70;;
9370;SDS011;4725;48.384;8.984;2022-10-31T05:57:52;4.43;;;2.00;;
9370;SDS011;4725;48.384;8.984;2022-10-31T06:00:20;6.77;;;2.90;;
9370;SDS011;4725;48.384;8.984;2022-10-31T06:02:49;7.87;;;3.03;;
9370;SDS011;4725;48.384;8.984;2022-10-31T06:05:16;8.37;;;2.80;;
9370;SDS011;4725;48.384;8.984;2022-10-31T06:07:43;6.53;;;2.20;;
9370;SDS011;4725;48.384;8.984;2022-10-31T06:10:10;6.67;;;3.17;;
9370;SDS011;4725;48.384;8.984;2022-10-31T06:12:36;4.73;;;2.27;;
9370;SDS011;4725;48.384;8.984;2022-10-31T06:15:06;4.53;;;2.37;;
9370;SDS011;4725;48.384;8.984;2022-10-31T06:17:34;4.87;;;2.60;;
9370;SDS011;4725;48.384;8.984;2022-10-31T06:20:03;7.90;;;3.30;;
9370;SDS011;4725;48.384;8.984;2022-10-31T06:22:31;4.97;;;2.67;;
9370;SDS011;4725;48.384;8.984;2022-10-31T06:24:58;6.20;;;3.07;;
9370;SDS011;4725;48.384;8.984;2022-10-31T06:27:25;6.03;;;2.50;;
9370;SDS011;4725;48.384;8.984;2022-10-31T06:29:52;7.20;;;2.60;;
9370;SDS011;4725;48.384;8.984;2022-10-31T06:32:19;8.13;;;2.67;;
9370;SDS011;4725;48.384;8.984;2022-10-31T06:34:46;6.23;;;3.10;;
9370;SDS011;4725;48.384;8.984;2022-10-31T06:37:15;10.43;;;3.00;;
9370;SDS011;4725;48.384;8.984;2022-10-31T06:39:42;8.77;;;2.70;;
9370;SDS011;4725;48.384;8.984;2022-10-31T06:42:09;7.10;;;3.07;;
9370;SDS011;4725;48.384;8.984;2022-10-31T06:44:36;7.73;;;3.27;;
9370;SDS011;4725;48.384;8.984;2022-10-31T06:47:03;3.30;;;2.30;;
9370;SDS011;4725;48.384;8.984;2022-10-31T06:49:31;8.17;;;3.50;;
9370;SDS011;4725;48.384;8.984;2022-10-31T06:51:58;5.20;;;2.40;;
9370;SDS011;4725;48.384;8.984;2022-10-31T06:54:26;6.87;;;2.83;;
9370;SDS011;4725;48.384;8.984;2022-10-31T06:56:53;8.93;;;2.60;;
9370;SDS011;4725;48.384;8.984;2022-10-31T06:59:20;6.37;;;2.30;;
9370;SDS011;4725;48.384;8.984;2022-10-31T07:01:49;5.27;;;2.53;;
9370;SDS011;4725;48.384;8.984;2022-10-31T07:04:16;6.03;;;2.77;;
9370;SDS011;4725;48.384;8.984;2022-10-31T07:06:42;7.97;;;2.70;;
9370;SDS011;4725;48.384;8.984;2022-10-31T07:09:09;9.83;;;3.07;;
9370;SDS011;4725;48.384;8.984;2022-10-31T07:11:38;5.13;;;2.40;;
9370;SDS011;4725;48.384;8.984;2022-10-31T07:14:05;4.43;;;2.77;;
9370;SDS011;4725;48.384;8.984;2022-10-31T07:16:32;3.27;;;2.43;;
9370;SDS011;4725;48.384;8.984;2022-10-31T07:18:59;4.13;;;3.03;;
9370;SDS011;4725;48.384;8.984;2022-10-31T07:21:25;2.87;;;2.40;;
9370;SDS011;4725;48.384;8.984;2022-10-31T07:23:52;9.50;;;2.43;;
9370;SDS011;4725;48.384;8.984;2022-10-31T07:26:19;11.77;;;3.00;;
9370;SDS011;4725;48.384;8.984;2022-10-31T07:28:47;5.63;;;3.07;;
9370;SDS011;4725;48.384;8.984;2022-10-31T07:31:14;6.80;;;2.63;;
9370;SDS011;4725;48.384;8.984;2022-10-31T07:33:41;10.13;;;3.03;;
9370;SDS011;4725;48.384;8.984;2022-10-31T07:36:08;8.13;;;3.10;;
9370;SDS011;4725;48.384;8.984;2022-10-31T07:38:36;4.47;;;2.50;;
9370;SDS011;4725;48.384;8.984;2022-10-31T07:41:03;5.27;;;2.77;;
9370;SDS011;4725;48.384;8.984;2022-10-31T07:43:32;9.27;;;3.47;;
9370;SDS011;4725;48.384;8.984;2022-10-31T07:46:00;5.10;;;2.60;;
9370;SDS011;4725;48.384;8.984;2022-10-31T07:48:27;4.67;;;3.10;;
9370;SDS011;4725;48.384;8.984;2022-10-31T07:50:54;6.63;;;3.43;;
9370;SDS011;4725;48.384;8.984;2022-10-31T07:53:21;7.00;;;3.73;;
9370;SDS011;4725;48.384;8.984;2022-10-31T07:55:48;5.67;;;3.50;;
9370;SDS011;4725;48.384;8.984;2022-10-31T07:58:15;9.80;;;3.57;;
9370;SDS011;4725;48.384;8.984;2022-10-31T08:00:43;9.10;;;3.90;;
9370;SDS011;4725;48.384;8.984;2022-10-31T08:03:13;7.70;;;3.50;;
9370;SDS011;4725;48.384;8.984;2022-10-31T08:05:42;16.60;;;9.40;;
9370;SDS011;4725;48.384;8.984;2022-10-31T08:08:10;12.77;;;4.93;;
9370;SDS011;4725;48.384;8.984;2022-10-31T08:10:38;10.87;;;4.70;;
9370;SDS011;4725;48.384;8.984;2022-10-31T08:13:06;9.47;;;3.83;;
9370;SDS011;4725;48.384;8.984;2022-10-31T08:15:35;5.30;;;3.03;;
9370;SDS011;4725;48.384;8.984;2022-10-31T08:18:04;10.13;;;3.97;;
9370;SDS011;4725;48.384;8.984;2022-10-31T08:20:33;6.53;;;3.67;;
9370;SDS011;4725;48.384;8.984;2022-10-31T08:23:00;6.90;;;3.00;;
9370;SDS011;4725;48.384;8.984;2022-10-31T08:25:28;8.67;;;3.07;;
9370;SDS011;4725;48.384;8.984;2022-10-31T08:27:56;6.47;;;2.87;;
9370;SDS011;4725;48.384;8.984;2022-10-31T08:30:24;5.57;;;2.57;;
9370;SDS011;4725;48.384;8.984;2022-10-31T08:33:01;7.43;;;3.33;;
9370;SDS011;4725;48.384;8.984;2022-10-31T08:35:29;7.87;;;2.53;;
9370;SDS011;4725;48.384;8.984;2022-10-31T08:37:58;9.03;;;2.87;;
9370;SDS011;4725;48.384;8.984;2022-10-31T08:40:26;4.47;;;2.57;;
9370;SDS011;4725;48.384;8.984;2022-10-31T08:42:57;6.77;;;2.67;;
9370;SDS011;4725;48.384;8.984;2022-10-31T09:34:46;5.68;;;2.95;;
9370;SDS011;4725;48.384;8.984;2022-10-31T09:37:13;9.45;;;3.80;;
9370;SDS011;4725;48.384;8.984;2022-10-31T09:39:40;8.77;;;3.83;;
9370;SDS011;4725;48.384;8.984;2022-10-31T09:42:19;9.02;;;3.40;;
9370;SDS011;4725;48.384;8.984;2022-10-31T09:45:06;6.57;;;3.58;;
9370;SDS011;4725;48.384;8.984;2022-10-31T09:47:42;7.50;;;3.22;;
9370;SDS011;4725;48.384;8.984;2022-10-31T09:50:20;7.22;;;3.05;;
9370;SDS011;4725;48.384;8.984;2022-10-31T09:52:51;6.97;;;2.80;;
9370;SDS011;4725;48.384;8.984;2022-10-31T09:55:25;10.63;;;3.60;;
9370;SDS011;4725;48.384;8.984;2022-10-31T09:57:57;5.82;;;3.17;;
9370;SDS011;4725;48.384;8.984;2022-10-31T10:00:25;8.15;;;3.15;;
9370;SDS011;4725;48.384;8.984;2022-10-31T10:02:53;6.03;;;2.78;;
9370;SDS011;4725;48.384;8.984;2022-10-31T10:05:26;6.75;;;2.85;;
9370;SDS011;4725;48.384;8.984;2022-10-31T10:07:59;10.30;;;3.08;;
9370;SDS011;4725;48.384;8.984;2022-10-31T10:10:34;13.65;;;2.97;;
9370;SDS011;4725;48.384;8.984;2022-10-31T10:13:16;16.38;;;3.20;;
9370;SDS011;4725;48.384;8.984;2022-10-31T10:19:00;6.18;;;3.00;;
9370;SDS011;4725;48.384;8.984;2022-10-31T10:21:39;5.40;;;2.72;;
9370;SDS011;4725;48.384;8.984;2022-10-31T10:24:15;8.43;;;2.70;;
9370;SDS011;4725;48.384;8.984;2022-10-31T10:26:50;5.85;;;2.83;;
9370;SDS011;4725;48.384;8.984;2022-10-31T10:29:29;6.28;;;2.83;;
9370;SDS011;4725;48.384;8.984;2022-10-31T10:32:01;14.88;;;3.25;;
9370;SDS011;4725;48.384;8.984;2022-10-31T10:34:37;10.85;;;3.13;;
9370;SDS011;4725;48.384;8.984;2022-10-31T10:37:12;9.40;;;2.65;;
9370;SDS011;4725;48.384;8.984;2022-10-31T10:39:47;5.15;;;2.70;;
9370;SDS011;4725;48.384;8.984;2022-10-31T10:42:17;7.22;;;2.58;;
9370;SDS011;4725;48.384;8.984;2022-10-31T10:45:06;5.65;;;2.83;;
9370;SDS011;4725;48.384;8.984;2022-10-31T10:47:59;6.90;;;3.45;;
9370;SDS011;4725;48.384;8.984;2022-10-31T10:50:41;7.30;;;2.47;;
9370;SDS011;4725;48.384;8.984;2022-10-31T10:53:19;10.95;;;3.35;;
9370;SDS011;4725;48.384;8.984;2022-10-31T10:56:02;8.15;;;3.20;;
9370;SDS011;4725;48.384;8.984;2022-10-31T10:58:37;6.97;;;2.75;;
9370;SDS011;4725;48.384;8.984;2022-10-31T11:01:08;5.53;;;3.10;;
9370;SDS011;4725;48.384;8.984;2022-10-31T11:03:38;6.50;;;3.13;;
9370;SDS011;4725;48.384;8.984;2022-10-31T11:06:15;6.68;;;3.00;;
9370;SDS011;4725;48.384;8.984;2022-10-31T11:08:48;6.68;;;3.05;;
9370;SDS011;4725;48.384;8.984;2022-10-31T11:11:19;8.25;;;3.05;;
9370;SDS011;4725;48.384;8.984;2022-10-31T11:13:52;9.15;;;3.25;;
9370;SDS011;4725;48.384;8.984;2022-10-31T11:16:27;11.48;;;3.50;;
9370;SDS011;4725;48.384;8.984;2022-10-31T11:19:04;7.32;;;3.45;;
9370;SDS011;4725;48.384;8.984;2022-10-31T11:21:34;6.30;;;2.83;;
9370;SDS011;4725;48.384;8.984;2022-10-31T11:24:03;8.68;;;3.58;;
9370;SDS011;4725;48.384;8.984;2022-10-31T11:26:37;7.07;;;2.83;;
9370;SDS011;4725;48.384;8.984;2022-10-31T11:29:10;4.90;;;2.90;;
9370;SDS011;4725;48.384;8.984;2022-10-31T11:31:40;12.73;;;3.28;;
9370;SDS011;4725;48.384;8.984;2022-10-31T11:34:12;9.18;;;3.55;;
9370;SDS011;4725;48.384;8.984;2022-10-31T11:36:42;13.48;;;3.50;;
9370;SDS011;4725;48.384;8.984;2022-10-31T11:39:16;7.00;;;3.10;;
9370;SDS011;4725;48.384;8.984;2022-10-31T11:41:46;6.47;;;3.67;;
9370;SDS011;4725;48.384;8.984;2022-10-31T11:44:14;7.05;;;3.55;;
9370;SDS011;4725;48.384;8.984;2022-10-31T11:46:44;6.47;;;3.60;;
9370;SDS011;4725;48.384;8.984;2022-10-31T11:49:14;6.38;;;3.17;;
9370;SDS011;4725;48.384;8.984;2022-10-31T11:51:46;8.15;;;3.60;;
9370;SDS011;4725;48.384;8.984;2022-10-31T11:54:21;7.40;;;3.42;;
9370;SDS011;4725;48.384;8.984;2022-10-31T11:56:51;12.43;;;3.80;;
9370;SDS011;4725;48.384;8.984;2022-10-31T11:59:20;7.47;;;3.35;;
9370;SDS011;4725;48.384;8.984;2022-10-31T12:01:51;6.95;;;3.17;;
9370;SDS011;4725;48.384;8.984;2022-10-31T12:04:19;8.27;;;2.92;;
9370;SDS011;4725;48.384;8.984;2022-10-31T12:06:53;7.57;;;3.00;;
9370;SDS011;4725;48.384;8.984;2022-10-31T12:09:22;8.68;;;3.92;;
9370;SDS011;4725;48.384;8.984;2022-10-31T12:11:58;6.28;;;2.95;;
9370;SDS011;4725;48.384;8.984;2022-10-31T12:14:49;6.93;;;2.97;;
9370;SDS011;4725;48.384;8.984;2022-10-31T12:17:23;13.27;;;3.72;;
9370;SDS011;4725;48.384;8.984;2022-10-31T12:19:59;6.70;;;3.00;;
9370;SDS011;4725;48.384;8.984;2022-10-31T12:22:34;7.13;;;3.20;;
9370;SDS011;4725;48.384;8.984;2022-10-31T12:25:14;7.80;;;3.05;;
9370;SDS011;4725;48.384;8.984;2022-10-31T12:31:03;12.90;;;3.28;;
9370;SDS011;4725;48.384;8.984;2022-10-31T12:33:42;7.35;;;2.85;;
9370;SDS011;4725;48.384;8.984;2022-10-31T12:42:01;6.43;;;2.65;;
9370;SDS011;4725;48.384;8.984;2022-10-31T12:44:43;8.32;;;3.15;;
9370;SDS011;4725;48.384;8.984;2022-10-31T12:47:39;8.60;;;2.75;;
9370;SDS011;4725;48.384;8.984;2022-10-31T12:50:19;9.80;;;2.78;;
9370;SDS011;4725;48.384;8.984;2022-10-31T12:52:56;9.77;;;2.53;;
9370;SDS011;4725;48.384;8.984;2022-10-31T12:58:26;7.18;;;2.55;;
9370;SDS011;4725;48.384;8.984;2022-10-31T13:01:01;10.85;;;3.22;;
9370;SDS011;4725;48.384;8.984;2022-10-31T13:03:37;9.98;;;3.33;;
9370;SDS011;4725;48.384;8.984;2022-10-31T13:06:09;6.20;;;3.30;;
9370;SDS011;4725;48.384;8.984;2022-10-31T13:08:41;7.78;;;3.10;;
9370;SDS011;4725;48.384;8.984;2022-10-31T13:11:12;10.68;;;4.10;;
9370;SDS011;4725;48.384;8.984;2022-10-31T13:13:47;7.97;;;3.10;;
9370;SDS011;4725;48.384;8.984;2022-10-31T13:16:21;7.95;;;4.00;;
9370;SDS011;4725;48.384;8.984;2022-10-31T13:18:52;9.18;;;4.25;;
9370;SDS011;4725;48.384;8.984;2022-10-31T13:21:25;8.25;;;3.85;;
9370;SDS011;4725;48.384;8.984;2022-10-31T13:23:54;9.95;;;4.03;;
9370;SDS011;4725;48.384;8.984;2022-10-31T13:26:32;9.18;;;3.33;;
9370;SDS011;4725;48.384;8.984;2022-10-31T13:29:05;5.03;;;2.75;;
9370;SDS011;4725;48.384;8.984;2022-10-31T13:31:39;7.63;;;2.50;;
9370;SDS011;4725;48.384;8.984;2022-10-31T13:34:09;9.63;;;3.53;;
9370;SDS011;4725;48.384;8.984;2022-10-31T13:36:45;5.95;;;3.00;;
9370;SDS011;4725;48.384;8.984;2022-10-31T13:39:20;5.57;;;3.05;;
9370;SDS011;4725;48.384;8.984;2022-10-31T13:41:54;7.10;;;3.30;;
9370;SDS011;4725;48.384;8.984;2022-10-31T13:44:30;8.00;;;3.13;;
9370;SDS011;4725;48.384;8.984;2022-10-31T13:47:02;7.03;;;3.15;;
9370;SDS011;4725;48.384;8.984;2022-10-31T13:49:37;8.00;;;2.95;;
9370;SDS011;4725;48.384;8.984;2022-10-31T13:52:06;8.13;;;2.80;;
9370;SDS011;4725;48.384;8.984;2022-10-31T13:54:40;8.25;;;3.15;;
9370;SDS011;4725;48.384;8.984;2022-10-31T13:57:14;6.53;;;3.05;;
9370;SDS011;4725;48.384;8.984;2022-10-31T13:59:47;6.68;;;2.67;;
9370;SDS011;4725;48.384;8.984;2022-10-31T14:02:16;9.38;;;3.30;;
9370;SDS011;4725;48.384;8.984;2022-10-31T14:04:46;8.35;;;2.85;;
9370;SDS011;4725;48.384;8.984;2022-10-31T14:07:19;9.15;;;3.03;;
9370;SDS011;4725;48.384;8.984;2022-10-31T14:09:51;5.97;;;3.53;;
9370;SDS011;4725;48.384;8.984;2022-10-31T14:12:23;6.80;;;2.85;;
9370;SDS011;4725;48.384;8.984;2022-10-31T14:14:55;7.00;;;2.92;;
9370;SDS011;4725;48.384;8.984;2022-10-31T14:17:26;9.18;;;3.50;;
9370;SDS011;4725;48.384;8.984;2022-10-31T14:20:03;9.13;;;4.00;;
9370;SDS011;4725;48.384;8.984;2022-10-31T14:22:52;6.32;;;3.15;;
9370;SDS011;4725;48.384;8.984;2022-10-31T14:25:25;5.57;;;2.80;;
9370;SDS011;4725;48.384;8.984;2022-10-31T14:27:55;11.65;;;3.47;;
9370;SDS011;4725;48.384;8.984;2022-10-31T14:30:26;8.10;;;3.50;;
9370;SDS011;4725;48.384;8.984;2022-10-31T14:32:57;6.82;;;3.50;;
9370;SDS011;4725;48.384;8.984;2022-10-31T14:35:27;7.57;;;4.20;;
9370;SDS011;4725;48.384;8.984;2022-10-31T14:38:19;8.32;;;4.03;;
9370;SDS011;4725;48.384;8.984;2022-10-31T14:41:04;5.60;;;3.33;;
9370;SDS011;4725;48.384;8.984;2022-10-31T14:43:52;9.38;;;3.67;;
9370;SDS011;4725;48.384;8.984;2022-10-31T14:46:29;8.55;;;3.38;;
9370;SDS011;4725;48.384;8.984;2022-10-31T14:49:12;10.05;;;3.67;;
9370;SDS011;4725;48.384;8.984;2022-10-31T14:51:59;8.57;;;3.80;;
9370;SDS011;4725;48.384;8.984;2022-10-31T14:54:28;7.13;;;3.20;;
9370;SDS011;4725;48.384;8.984;2022-10-31T14:56:59;7.10;;;3.47;;
9370;SDS011;4725;48.384;8.984;2022-10-31T14:59:33;6.68;;;3.05;;
9370;SDS011;4725;48.384;8.984;2022-10-31T15:02:09;7.53;;;3.03;;
9370;SDS011;4725;48.384;8.984;2022-10-31T15:04:40;6.40;;;3.22;;
9370;SDS011;4725;48.384;8.984;2022-10-31T15:07:10;9.88;;;4.13;;
9370;SDS011;4725;48.384;8.984;2022-10-31T15:09:41;14.45;;;6.15;;
9370;SDS011;4725;48.384;8.984;2022-10-31T15:12:21;20.67;;;11.18;;
9370;SDS011;4725;48.384;8.984;2022-10-31T15:14:50;25.90;;;15.40;;
9370;SDS011;4725;48.384;8.984;2022-10-31T15:17:18;23.77;;;13.00;;
9370;SDS011;4725;48.384;8.984;2022-10-31T15:19:46;36.97;;;20.95;;
9370;SDS011;4725;48.384;8.984;2022-10-31T15:22:14;36.33;;;19.58;;
9370;SDS011;4725;48.384;8.984;2022-10-31T15:24:42;59.40;;;31.95;;
9370;SDS011;4725;48.384;8.984;2022-10-31T15:27:10;51.65;;;28.65;;
9370;SDS011;4725;48.384;8.984;2022-10-31T15:29:47;42.53;;;20.80;;
9370;SDS011;4725;48.384;8.984;2022-10-31T15:32:17;35.38;;;16.45;;
9370;SDS011;4725;48.384;8.984;2022-10-31T15:34:48;25.98;;;13.43;;
9370;SDS011;4725;48.384;8.984;2022-10-31T15:37:16;36.90;;;17.23;;
9370;SDS011;4725;48.384;8.984;2022-10-31T15:39:44;39.10;;;18.65;;
9370;SDS011;4725;48.384;8.984;2022-10-31T15:42:17;32.83;;;17.73;;
9370;SDS011;4725;48.384;8.984;2022-10-31T15:44:47;31.25;;;16.92;;
9370;SDS011;4725;48.384;8.984;2022-10-31T15:47:18;29.55;;;17.77;;
9370;SDS011;4725;48.384;8.984;2022-10-31T15:49:50;24.77;;;12.65;;
9370;SDS011;4725;48.384;8.984;2022-10-31T15:52:20;12.80;;;7.88;;
9370;SDS011;4725;48.384;8.984;2022-10-31T15:54:53;18.13;;;8.55;;
9370;SDS011;4725;48.384;8.984;2022-10-31T15:57:22;16.95;;;9.00;;
9370;SDS011;4725;48.384;8.984;2022-10-31T15:59:51;14.05;;;6.75;;
9370;SDS011;4725;48.384;8.984;2022-10-31T16:02:19;11.00;;;6.38;;
9370;SDS011;4725;48.384;8.984;2022-10-31T16:04:52;15.95;;;7.43;;
9370;SDS011;4725;48.384;8.984;2022-10-31T16:07:21;17.38;;;6.50;;
9370;SDS011;4725;48.384;8.984;2022-10-31T16:09:49;7.57;;;4.57;;
9370;SDS011;4725;48.384;8.984;2022-10-31T16:12:18;10.25;;;4.65;;
9370;SDS011;4725;48.384;8.984;2022-10-31T16:14:46;15.18;;;5.05;;
9370;SDS011;4725;48.384;8.984;2022-10-31T16:17:14;14.85;;;4.82;;
9370;SDS011;4725;48.384;8.984;2022-10-31T16:19:47;11.93;;;4.80;;
9370;SDS011;4725;48.384;8.984;2022-10-31T16:22:19;7.00;;;4.32;;
9370;SDS011;4725;48.384;8.984;2022-10-31T16:24:49;14.82;;;5.05;;
9370;SDS011;4725;48.384;8.984;2022-10-31T16:27:18;7.97;;;3.93;;
9370;SDS011;4725;48.384;8.984;2022-10-31T16:29:50;7.90;;;3.97;;
9370;SDS011;4725;48.384;8.984;2022-10-31T16:32:24;11.30;;;4.43;;
9370;SDS011;4725;48.384;8.984;2022-10-31T16:34:58;9.73;;;4.47;;
9370;SDS011;4725;48.384;8.984;2022-10-31T16:37:43;11.00;;;4.50;;
9370;SDS011;4725;48.384;8.984;2022-10-31T16:40:10;9.87;;;4.10;;
9370;SDS011;4725;48.384;8.984;2022-10-31T16:42:39;6.80;;;3.50;;